createdAt,value
2019-02-19T00:03:39.201Z,21.99
2019-02-19T00:08:43.377Z,21.99
2019-02-19T00:13:47.673Z,22.00
2019-02-19T00:18:51.930Z,22.00
2019-02-19T00:23:56.035Z,21.96
2019-02-19T00:29:00.234Z,21.96
2019-02-19T00:34:04.482Z,21.93
2019-02-19T00:39:08.644Z,21.91
2019-02-19T00:44:12.932Z,21.90
2019-02-19T00:49:17.250Z,21.82
2019-02-19T00:54:21.495Z,21.88
2019-02-19T00:59:25.729Z,21.87
2019-02-19T01:04:29.919Z,21.85
2019-02-19T01:09:34.058Z,21.87
2019-02-19T01:14:38.236Z,21.82
2019-02-19T01:19:42.393Z,21.81
2019-02-19T01:24:46.536Z,21.79
2019-02-19T01:29:50.655Z,21.75
2019-02-19T01:34:54.776Z,21.73
2019-02-19T01:39:58.930Z,21.67
2019-02-19T01:45:03.256Z,21.62
2019-02-19T01:50:08.025Z,21.58
2019-02-19T01:55:12.055Z,21.55
2019-02-19T02:00:16.283Z,21.49
2019-02-19T02:05:20.340Z,21.47
2019-02-19T02:10:24.459Z,21.44
2019-02-19T02:15:28.491Z,21.42
2019-02-19T02:20:32.964Z,21.39
2019-02-19T02:25:37.019Z,21.38
2019-02-19T02:30:41.135Z,21.36
2019-02-19T02:35:45.167Z,21.34
2019-02-19T02:40:49.196Z,21.34
2019-02-19T02:45:53.930Z,21.32
2019-02-19T02:50:58.160Z,21.29
2019-02-19T02:56:02.267Z,21.29
2019-02-19T03:01:06.394Z,21.26
2019-02-19T03:06:29.406Z,21.24
2019-02-19T03:11:33.549Z,21.24
2019-02-19T03:16:37.575Z,21.21
2019-02-19T03:21:41.605Z,21.21
2019-02-19T03:26:45.735Z,21.20
2019-02-19T03:31:49.778Z,21.17
2019-02-19T03:36:53.827Z,21.07
2019-02-19T03:41:57.937Z,21.16
2019-02-19T03:47:01.963Z,21.13
2019-02-19T03:52:06.078Z,21.12
2019-02-19T03:57:10.575Z,21.10
2019-02-19T04:02:14.816Z,21.08
2019-02-19T04:07:18.858Z,20.98
2019-02-19T04:12:31.673Z,20.98
2019-02-19T04:17:35.709Z,21.03
2019-02-19T04:22:39.764Z,21.02
2019-02-19T04:27:43.802Z,21.00
2019-02-19T04:32:47.903Z,21.00
2019-02-19T04:37:51.982Z,21.00
2019-02-19T04:42:56.115Z,20.98
2019-02-19T04:48:00.282Z,20.95
2019-02-19T04:53:04.475Z,20.95
2019-02-19T04:58:08.628Z,20.89
2019-02-19T05:03:12.772Z,20.87
2019-02-19T05:08:16.922Z,20.76
2019-02-19T05:13:21.114Z,20.81
2019-02-19T05:18:25.266Z,20.72
2019-02-19T05:23:29.352Z,20.80
2019-02-19T05:28:33.613Z,20.78
2019-02-19T05:33:37.683Z,20.69
2019-02-19T05:38:41.828Z,20.76
2019-02-19T05:43:45.888Z,20.74
2019-02-19T05:48:50.014Z,20.74
2019-02-19T05:53:54.103Z,20.71
2019-02-19T05:58:58.153Z,20.71
2019-02-19T06:04:02.234Z,20.69
2019-02-19T06:09:06.668Z,20.68
2019-02-19T06:14:10.764Z,20.66
2019-02-19T06:19:14.860Z,20.64
2019-02-19T06:24:18.882Z,20.64
2019-02-19T06:29:22.924Z,20.62
2019-02-19T06:34:27.045Z,20.61
2019-02-19T06:39:31.073Z,20.59
2019-02-19T06:44:35.101Z,20.58
2019-02-19T06:49:39.166Z,20.57
2019-02-19T06:54:43.189Z,20.57
2019-02-19T06:59:47.327Z,20.55
2019-02-19T07:04:54.428Z,20.55
2019-02-19T07:09:58.459Z,20.55
2019-02-19T07:15:02.506Z,20.54
2019-02-19T07:20:06.718Z,20.54
2019-02-19T07:25:10.855Z,20.54
2019-02-19T07:30:14.966Z,20.52
2019-02-19T07:35:19.265Z,20.53
2019-02-19T07:40:23.286Z,20.53
2019-02-19T07:45:27.418Z,20.53
2019-02-19T07:50:31.482Z,20.53
2019-02-19T07:55:35.533Z,15.73
2019-02-19T08:00:39.657Z,15.13
2019-02-19T08:05:43.716Z,14.71
2019-02-19T08:10:47.775Z,17.28
2019-02-19T08:15:51.856Z,19.34
2019-02-19T08:20:55.940Z,19.34
2019-02-19T08:26:00.006Z,20.53
2019-02-19T08:31:04.105Z,20.68
2019-02-19T08:36:08.241Z,20.78
2019-02-19T08:41:12.308Z,20.98
2019-02-19T08:46:16.392Z,20.81
2019-02-19T08:51:20.454Z,20.81
2019-02-19T08:56:24.496Z,20.77
2019-02-19T09:01:28.547Z,20.81
2019-02-19T09:06:32.613Z,20.81
2019-02-19T09:11:36.675Z,20.93
2019-02-19T09:16:40.867Z,20.76
2019-02-19T09:21:44.907Z,20.88
2019-02-19T09:26:48.974Z,20.88
2019-02-19T09:31:53.123Z,20.71
2019-02-19T09:36:57.206Z,20.71
2019-02-19T09:42:01.333Z,20.55
2019-02-19T09:47:05.544Z,20.50
2019-02-19T09:52:09.765Z,20.50
2019-02-19T09:57:13.819Z,20.53
2019-02-19T10:02:17.859Z,20.40
2019-02-19T10:07:21.984Z,20.46
2019-02-19T10:12:26.112Z,20.36
2019-02-19T10:17:30.187Z,20.43
2019-02-19T10:22:34.307Z,20.43
2019-02-19T10:27:38.365Z,20.41
2019-02-19T10:32:42.407Z,20.41
2019-02-19T10:37:46.502Z,20.40
2019-02-19T10:42:50.547Z,20.39
2019-02-19T10:47:54.975Z,20.39
2019-02-19T10:52:59.035Z,20.37
2019-02-19T10:58:03.095Z,20.29
2019-02-19T11:03:07.215Z,20.42
2019-02-19T11:08:11.319Z,20.50
2019-02-19T11:13:15.392Z,20.42
2019-02-19T11:18:27.878Z,20.41
2019-02-19T11:23:25.263Z,20.30
2019-02-19T11:28:29.633Z,20.26
2019-02-19T11:33:33.891Z,20.22
2019-02-19T11:38:37.954Z,20.18
2019-02-19T11:43:42.101Z,20.37
2019-02-19T11:48:46.160Z,20.37
2019-02-19T11:53:50.287Z,20.26
2019-02-19T11:58:54.322Z,20.45
2019-02-19T12:03:58.360Z,20.39
2019-02-19T12:09:02.397Z,20.22
2019-02-19T12:14:06.601Z,20.22
2019-02-19T12:19:10.736Z,20.27
2019-02-19T12:24:15.008Z,16.18
2019-02-19T12:29:19.077Z,16.53
2019-02-19T12:34:23.119Z,16.53
2019-02-19T12:39:27.233Z,20.05
2019-02-19T12:44:31.356Z,20.37
2019-02-19T12:49:35.411Z,20.37
2019-02-19T12:54:39.490Z,20.81
2019-02-19T12:59:43.584Z,20.83
2019-02-19T13:04:47.716Z,20.76
2019-02-19T13:09:51.779Z,20.71
2019-02-19T13:14:55.826Z,20.89
2019-02-19T13:19:59.953Z,20.84
2019-02-19T13:25:04.265Z,20.77
2019-02-19T13:30:11.361Z,20.82
2019-02-19T13:35:15.511Z,20.68
2019-02-19T13:40:19.814Z,20.68
2019-02-19T13:45:23.876Z,20.72
2019-02-19T13:50:28.036Z,20.69
2019-02-19T13:55:35.053Z,20.58
2019-02-19T14:00:41.514Z,20.60
2019-02-19T14:05:45.794Z,20.62
2019-02-19T14:10:49.918Z,20.62
2019-02-19T14:16:03.810Z,20.68
2019-02-19T14:21:22.879Z,20.83
2019-02-19T14:27:01.112Z,20.94
2019-02-19T14:32:20.067Z,21.01
2019-02-19T14:37:41.820Z,21.01
2019-02-19T14:42:57.398Z,20.92
2019-02-19T14:48:19.444Z,20.92
2019-02-19T14:53:41.363Z,20.93
2019-02-19T14:59:12.758Z,20.95
2019-02-19T15:04:35.798Z,20.90
2019-02-19T15:10:04.980Z,20.86
2019-02-19T15:15:21.994Z,20.86
2019-02-19T15:20:48.217Z,20.86
2019-02-19T15:26:20.314Z,20.86
2019-02-19T15:31:29.972Z,20.84
2019-02-19T15:36:53.035Z,20.84
2019-02-19T15:42:31.387Z,20.85
2019-02-19T15:47:57.551Z,20.84
2019-02-19T15:53:08.452Z,20.82
2019-02-19T15:58:37.830Z,20.73
2019-02-19T16:04:03.903Z,20.73
2019-02-19T16:09:19.423Z,20.73
2019-02-19T16:15:00.722Z,20.71
2019-02-19T16:20:23.782Z,20.69
2019-02-19T16:25:52.987Z,20.69
2019-02-19T16:31:18.793Z,20.66
2019-02-19T16:36:43.638Z,20.65
2019-02-19T16:42:00.970Z,20.65
2019-02-19T16:47:30.286Z,20.64
2019-02-19T16:52:47.769Z,20.60
2019-02-19T16:57:56.609Z,20.60
2019-02-19T17:03:16.905Z,20.58
2019-02-19T17:08:32.323Z,20.58
2019-02-19T17:13:58.734Z,21.74
2019-02-19T17:19:24.696Z,21.86
2019-02-19T17:24:53.553Z,21.86
2019-02-19T17:30:15.209Z,22.08
2019-02-19T17:35:37.097Z,22.00
2019-02-19T17:40:59.075Z,22.00
2019-02-19T17:46:17.907Z,22.14
2019-02-19T17:51:38.004Z,22.29
2019-02-19T17:56:49.455Z,22.28
2019-02-19T18:02:00.915Z,22.34
2019-02-19T18:07:23.571Z,22.16
2019-02-19T18:12:39.411Z,22.00
2019-02-19T18:18:05.169Z,22.08
2019-02-19T18:23:09.195Z,22.08
2019-02-19T18:28:13.227Z,21.92
2019-02-19T18:33:18.655Z,22.12
2019-02-19T18:38:23.015Z,22.12
2019-02-19T18:43:27.065Z,22.17
2019-02-19T18:48:31.146Z,22.08
2019-02-19T18:53:35.206Z,22.08
2019-02-19T18:58:39.241Z,22.11
2019-02-19T19:03:43.410Z,22.15
2019-02-19T19:08:47.568Z,22.20
2019-02-19T19:13:51.646Z,22.24
2019-02-19T19:18:55.707Z,22.22
2019-02-19T19:23:59.781Z,22.22
2019-02-19T19:29:04.023Z,22.28
2019-02-19T19:34:08.120Z,22.17
2019-02-19T19:39:12.163Z,22.33
2019-02-19T19:44:16.309Z,22.33
2019-02-19T19:49:20.358Z,22.35
2019-02-19T19:54:24.430Z,22.35
2019-02-19T19:59:28.538Z,22.35
2019-02-19T20:04:32.652Z,22.38
2019-02-19T20:09:36.748Z,22.31
2019-02-19T20:14:40.808Z,22.25
2019-02-19T20:19:44.852Z,22.12
2019-02-19T20:24:49.037Z,22.08
2019-02-19T20:29:53.195Z,22.08
2019-02-19T20:34:57.278Z,21.99
2019-02-19T20:40:01.415Z,21.82
2019-02-19T20:45:05.970Z,21.90
2019-02-19T20:50:10.408Z,21.85
2019-02-19T20:55:14.822Z,21.85
2019-02-19T21:00:18.953Z,21.79
2019-02-19T21:05:23.082Z,21.77
2019-02-19T21:10:27.230Z,21.76
2019-02-19T21:15:31.283Z,21.70
2019-02-19T21:20:35.430Z,21.62
2019-02-19T21:25:39.514Z,21.71
2019-02-19T21:30:45.290Z,21.56
2019-02-19T21:35:49.352Z,21.53
2019-02-19T21:40:53.556Z,21.64
2019-02-19T21:45:57.620Z,21.64
2019-02-19T21:51:01.686Z,21.60
2019-02-19T21:56:05.940Z,21.60
2019-02-19T22:01:10.073Z,21.60
2019-02-19T22:06:14.289Z,21.58
2019-02-19T22:11:18.528Z,21.46
2019-02-19T22:16:22.579Z,21.56
2019-02-19T22:21:35.242Z,21.43
2019-02-19T22:26:39.322Z,21.47
2019-02-19T22:31:43.475Z,21.37
2019-02-19T22:36:47.630Z,21.46
2019-02-19T22:41:51.714Z,21.51
2019-02-19T22:46:55.778Z,21.43
2019-02-19T22:51:59.929Z,21.50
2019-02-19T22:57:04.100Z,21.46
2019-02-19T23:02:15.189Z,21.49
2019-02-19T23:07:19.346Z,21.47
2019-02-19T23:12:23.548Z,21.33
2019-02-19T23:17:27.896Z,21.49
2019-02-19T23:22:32.138Z,21.45
2019-02-19T23:27:36.189Z,21.38
2019-02-19T23:32:40.258Z,21.39
2019-02-19T23:37:44.514Z,21.39
2019-02-19T23:42:48.648Z,21.54
2019-02-19T23:47:52.750Z,21.54
2019-02-19T23:52:56.811Z,21.53
2019-02-19T23:58:01.377Z,21.52
